sensor_id;sensor_type;location;lat;lon;timestamp;P1;durP1;ratioP1;P2;durP2;ratioP2
21122;SDS011;10719;48.130;11.630;2024-03-23T00:52:45;9.00;;;2.55;;
21122;SDS011;10719;48.130;11.630;2024-03-23T00:55:10;5.80;;;2.30;;
21122;SDS011;10719;48.130;11.630;2024-03-23T00:57:36;8.80;;;2.80;;
21122;SDS011;10719;48.130;11.630;2024-03-23T01:00:01;7.50;;;2.53;;
21122;SDS011;10719;48.130;11.630;2024-03-23T01:02:27;5.15;;;2.00;;
21122;SDS011;10719;48.130;11.630;2024-03-23T01:04:53;5.40;;;2.17;;
21122;SDS011;10719;48.130;11.630;2024-03-23T01:07:18;5.25;;;2.10;;
21122;SDS011;10719;48.130;11.630;2024-03-23T01:09:44;8.43;;;2.45;;
21122;SDS011;10719;48.130;11.630;2024-03-23T01:12:10;9.32;;;2.70;;
21122;SDS011;10719;48.130;11.630;2024-03-23T01:14:35;6.03;;;2.15;;
21122;SDS011;10719;48.130;11.630;2024-03-23T01:17:01;8.45;;;2.50;;
21122;SDS011;10719;48.130;11.630;2024-03-23T01:19:27;6.30;;;2.20;;
21122;SDS011;10719;48.130;11.630;2024-03-23T01:21:52;3.95;;;2.10;;
21122;SDS011;10719;48.130;11.630;2024-03-23T01:24:18;6.88;;;2.13;;
21122;SDS011;10719;48.130;11.630;2024-03-23T01:26:43;6.75;;;2.47;;
21122;SDS011;10719;48.130;11.630;2024-03-23T01:29:09;6.85;;;2.40;;
21122;SDS011;10719;48.130;11.630;2024-03-23T01:31:34;5.90;;;2.30;;
21122;SDS011;10719;48.130;11.630;2024-03-23T01:34:00;5.60;;;2.20;;
21122;SDS011;10719;48.130;11.630;2024-03-23T01:36:26;5.25;;;2.22;;
21122;SDS011;10719;48.130;11.630;2024-03-23T01:38:51;5.15;;;2.17;;
21122;SDS011;10719;48.130;11.630;2024-03-23T01:41:17;5.78;;;2.28;;
21122;SDS011;10719;48.130;11.630;2024-03-23T01:43:43;5.40;;;2.05;;
21122;SDS011;10719;48.130;11.630;2024-03-23T01:46:08;7.57;;;1.90;;
21122;SDS011;10719;48.130;11.630;2024-03-23T01:48:34;6.25;;;2.13;;
21122;SDS011;10719;48.130;11.630;2024-03-23T01:50:59;4.90;;;1.92;;
21122;SDS011;10719;48.130;11.630;2024-03-23T01:53:25;5.38;;;2.13;;
21122;SDS011;10719;48.130;11.630;2024-03-23T01:55:51;4.72;;;2.22;;
21122;SDS011;10719;48.130;11.630;2024-03-23T01:58:16;5.05;;;2.22;;
21122;SDS011;10719;48.130;11.630;2024-03-23T02:00:42;4.40;;;1.92;;
21122;SDS011;10719;48.130;11.630;2024-03-23T02:03:26;3.75;;;1.85;;
21122;SDS011;10719;48.130;11.630;2024-03-23T02:05:53;5.43;;;1.90;;
21122;SDS011;10719;48.130;11.630;2024-03-23T02:08:19;4.65;;;1.70;;
21122;SDS011;10719;48.130;11.630;2024-03-23T02:10:47;5.72;;;2.30;;
21122;SDS011;10719;48.130;11.630;2024-03-23T02:13:15;7.35;;;2.20;;
21122;SDS011;10719;48.130;11.630;2024-03-23T02:15:42;6.80;;;1.90;;
21122;SDS011;10719;48.130;11.630;2024-03-23T02:18:09;5.85;;;2.13;;
21122;SDS011;10719;48.130;11.630;2024-03-23T02:20:35;6.18;;;1.92;;
21122;SDS011;10719;48.130;11.630;2024-03-23T02:23:01;7.05;;;2.13;;
21122;SDS011;10719;48.130;11.630;2024-03-23T02:25:27;4.72;;;2.20;;
21122;SDS011;10719;48.130;11.630;2024-03-23T02:27:53;7.40;;;2.13;;
21122;SDS011;10719;48.130;11.630;2024-03-23T02:30:19;5.78;;;2.15;;
21122;SDS011;10719;48.130;11.630;2024-03-23T02:32:45;10.38;;;2.33;;
21122;SDS011;10719;48.130;11.630;2024-03-23T02:35:11;6.50;;;1.90;;
21122;SDS011;10719;48.130;11.630;2024-03-23T02:37:37;3.55;;;1.80;;
21122;SDS011;10719;48.130;11.630;2024-03-23T02:40:02;5.82;;;2.08;;
21122;SDS011;10719;48.130;11.630;2024-03-23T02:42:28;5.10;;;2.17;;
21122;SDS011;10719;48.130;11.630;2024-03-23T02:44:54;7.60;;;2.15;;
21122;SDS011;10719;48.130;11.630;2024-03-23T02:47:20;3.90;;;1.92;;
21122;SDS011;10719;48.130;11.630;2024-03-23T02:49:45;6.00;;;2.20;;
21122;SDS011;10719;48.130;11.630;2024-03-23T02:52:11;6.97;;;2.33;;
21122;SDS011;10719;48.130;11.630;2024-03-23T02:54:36;6.93;;;2.20;;
21122;SDS011;10719;48.130;11.630;2024-03-23T02:57:02;4.93;;;1.92;;
21122;SDS011;10719;48.130;11.630;2024-03-23T02:59:27;5.45;;;2.03;;
21122;SDS011;10719;48.130;11.630;2024-03-23T03:01:53;7.15;;;1.95;;
21122;SDS011;10719;48.130;11.630;2024-03-23T03:04:19;6.90;;;2.55;;
21122;SDS011;10719;48.130;11.630;2024-03-23T03:06:47;3.45;;;1.70;;
21122;SDS011;10719;48.130;11.630;2024-03-23T03:09:14;4.80;;;2.15;;
21122;SDS011;10719;48.130;11.630;2024-03-23T03:11:40;4.45;;;1.88;;
21122;SDS011;10719;48.130;11.630;2024-03-23T03:14:06;5.88;;;2.30;;
21122;SDS011;10719;48.130;11.630;2024-03-23T03:16:32;6.00;;;1.90;;
21122;SDS011;10719;48.130;11.630;2024-03-23T03:18:58;6.72;;;1.92;;
21122;SDS011;10719;48.130;11.630;2024-03-23T03:21:24;4.07;;;1.67;;
21122;SDS011;10719;48.130;11.630;2024-03-23T03:23:49;4.82;;;1.85;;
21122;SDS011;10719;48.130;11.630;2024-03-23T03:26:18;4.95;;;2.05;;
21122;SDS011;10719;48.130;11.630;2024-03-23T03:28:43;4.70;;;1.80;;
21122;SDS011;10719;48.130;11.630;2024-03-23T03:31:13;4.07;;;1.73;;
21122;SDS011;10719;48.130;11.630;2024-03-23T03:33:39;3.60;;;1.80;;
21122;SDS011;10719;48.130;11.630;2024-03-23T03:36:05;4.65;;;1.75;;
21122;SDS011;10719;48.130;11.630;2024-03-23T03:38:31;3.42;;;1.60;;
21122;SDS011;10719;48.130;11.630;2024-03-23T03:40:56;4.53;;;1.90;;
21122;SDS011;10719;48.130;11.630;2024-03-23T03:43:23;3.10;;;1.67;;
21122;SDS011;10719;48.130;11.630;2024-03-23T03:45:53;7.30;;;1.63;;
21122;SDS011;10719;48.130;11.630;2024-03-23T03:48:19;4.63;;;1.63;;
21122;SDS011;10719;48.130;11.630;2024-03-23T03:50:44;5.13;;;2.00;;
21122;SDS011;10719;48.130;11.630;2024-03-23T03:53:10;4.85;;;1.77;;
21122;SDS011;10719;48.130;11.630;2024-03-23T03:55:36;6.15;;;1.85;;
21122;SDS011;10719;48.130;11.630;2024-03-23T03:58:02;5.15;;;1.83;;
21122;SDS011;10719;48.130;11.630;2024-03-23T04:00:27;5.72;;;1.67;;
21122;SDS011;10719;48.130;11.630;2024-03-23T04:02:53;3.47;;;1.70;;
21122;SDS011;10719;48.130;11.630;2024-03-23T04:05:18;4.47;;;1.77;;
21122;SDS011;10719;48.130;11.630;2024-03-23T04:07:45;4.25;;;1.65;;
21122;SDS011;10719;48.130;11.630;2024-03-23T04:10:10;3.80;;;1.48;;
21122;SDS011;10719;48.130;11.630;2024-03-23T04:12:36;4.85;;;1.73;;
21122;SDS011;10719;48.130;11.630;2024-03-23T04:15:02;3.00;;;1.65;;
21122;SDS011;10719;48.130;11.630;2024-03-23T04:17:29;7.50;;;1.90;;
21122;SDS011;10719;48.130;11.630;2024-03-23T04:19:57;5.47;;;1.85;;
21122;SDS011;10719;48.130;11.630;2024-03-23T04:22:23;9.32;;;2.47;;
21122;SDS011;10719;48.130;11.630;2024-03-23T04:24:51;4.53;;;1.63;;
21122;SDS011;10719;48.130;11.630;2024-03-23T04:27:20;3.80;;;1.90;;
21122;SDS011;10719;48.130;11.630;2024-03-23T04:29:48;4.43;;;1.58;;
21122;SDS011;10719;48.130;11.630;2024-03-23T04:32:15;4.35;;;1.67;;
21122;SDS011;10719;48.130;11.630;2024-03-23T04:34:41;6.07;;;1.77;;
21122;SDS011;10719;48.130;11.630;2024-03-23T04:37:06;4.38;;;1.65;;
21122;SDS011;10719;48.130;11.630;2024-03-23T04:39:32;4.32;;;1.77;;
21122;SDS011;10719;48.130;11.630;2024-03-23T04:41:58;3.00;;;1.67;;
21122;SDS011;10719;48.130;11.630;2024-03-23T04:44:24;5.93;;;1.65;;
21122;SDS011;10719;48.130;11.630;2024-03-23T04:46:49;9.00;;;2.45;;
21122;SDS011;10719;48.130;11.630;2024-03-23T04:49:15;5.10;;;1.65;;
21122;SDS011;10719;48.130;11.630;2024-03-23T04:51:41;4.07;;;1.60;;
21122;SDS011;10719;48.130;11.630;2024-03-23T04:54:11;5.05;;;1.65;;
21122;SDS011;10719;48.130;11.630;2024-03-23T04:56:39;4.85;;;1.70;;
21122;SDS011;10719;48.130;11.630;2024-03-23T04:59:05;3.17;;;1.48;;
21122;SDS011;10719;48.130;11.630;2024-03-23T05:01:31;4.00;;;1.30;;
21122;SDS011;10719;48.130;11.630;2024-03-23T05:03:57;5.05;;;1.80;;
21122;SDS011;10719;48.130;11.630;2024-03-23T05:06:23;3.58;;;1.60;;
21122;SDS011;10719;48.130;11.630;2024-03-23T05:08:50;7.70;;;2.33;;
21122;SDS011;10719;48.130;11.630;2024-03-23T05:11:16;5.53;;;1.55;;
21122;SDS011;10719;48.130;11.630;2024-03-23T05:13:42;3.47;;;1.80;;
21122;SDS011;10719;48.130;11.630;2024-03-23T05:16:08;3.50;;;1.73;;
21122;SDS011;10719;48.130;11.630;2024-03-23T05:18:34;3.78;;;1.60;;
21122;SDS011;10719;48.130;11.630;2024-03-23T05:21:00;4.35;;;1.60;;
21122;SDS011;10719;48.130;11.630;2024-03-23T05:23:27;4.20;;;1.60;;
21122;SDS011;10719;48.130;11.630;2024-03-23T05:25:53;4.32;;;1.70;;
21122;SDS011;10719;48.130;11.630;2024-03-23T05:28:19;5.10;;;1.52;;
21122;SDS011;10719;48.130;11.630;2024-03-23T05:30:52;3.20;;;1.30;;
21122;SDS011;10719;48.130;11.630;2024-03-23T05:33:19;3.90;;;1.58;;
21122;SDS011;10719;48.130;11.630;2024-03-23T05:35:45;3.65;;;1.70;;
21122;SDS011;10719;48.130;11.630;2024-03-23T05:38:11;2.42;;;1.35;;
21122;SDS011;10719;48.130;11.630;2024-03-23T05:40:36;5.80;;;1.77;;
21122;SDS011;10719;48.130;11.630;2024-03-23T05:43:05;4.78;;;1.48;;
21122;SDS011;10719;48.130;11.630;2024-03-23T05:45:31;3.28;;;1.40;;
21122;SDS011;10719;48.130;11.630;2024-03-23T05:47:56;4.40;;;1.80;;
21122;SDS011;10719;48.130;11.630;2024-03-23T05:50:22;4.15;;;1.67;;
21122;SDS011;10719;48.130;11.630;2024-03-23T05:52:49;6.45;;;1.55;;
21122;SDS011;10719;48.130;11.630;2024-03-23T05:55:15;3.00;;;1.38;;
21122;SDS011;10719;48.130;11.630;2024-03-23T05:57:40;7.47;;;1.70;;
21122;SDS011;10719;48.130;11.630;2024-03-23T06:00:06;3.15;;;1.35;;
21122;SDS011;10719;48.130;11.630;2024-03-23T06:02:41;2.75;;;1.40;;
21122;SDS011;10719;48.130;11.630;2024-03-23T06:05:10;2.58;;;1.40;;
21122;SDS011;10719;48.130;11.630;2024-03-23T06:07:37;2.47;;;1.38;;
21122;SDS011;10719;48.130;11.630;2024-03-23T06:10:02;3.33;;;1.52;;
21122;SDS011;10719;48.130;11.630;2024-03-23T06:12:28;3.72;;;1.38;;
21122;SDS011;10719;48.130;11.630;2024-03-23T06:14:54;7.55;;;1.60;;
21122;SDS011;10719;48.130;11.630;2024-03-23T06:17:19;3.08;;;1.52;;
21122;SDS011;10719;48.130;11.630;2024-03-23T06:19:45;6.22;;;1.50;;
21122;SDS011;10719;48.130;11.630;2024-03-23T06:22:11;4.22;;;1.50;;
21122;SDS011;10719;48.130;11.630;2024-03-23T06:24:37;4.28;;;1.70;;
21122;SDS011;10719;48.130;11.630;2024-03-23T06:27:02;2.63;;;1.50;;
21122;SDS011;10719;48.130;11.630;2024-03-23T06:29:28;3.25;;;1.35;;
21122;SDS011;10719;48.130;11.630;2024-03-23T06:31:54;2.22;;;1.17;;
21122;SDS011;10719;48.130;11.630;2024-03-23T06:34:20;3.78;;;1.42;;
21122;SDS011;10719;48.130;11.630;2024-03-23T06:36:47;3.63;;;1.30;;
21122;SDS011;10719;48.130;11.630;2024-03-23T06:39:12;3.63;;;1.30;;
21122;SDS011;10719;48.130;11.630;2024-03-23T06:41:40;3.78;;;1.30;;
21122;SDS011;10719;48.130;11.630;2024-03-23T06:44:07;2.70;;;1.23;;
21122;SDS011;10719;48.130;11.630;2024-03-23T06:46:32;3.65;;;1.33;;
21122;SDS011;10719;48.130;11.630;2024-03-23T06:48:58;5.15;;;1.40;;
21122;SDS011;10719;48.130;11.630;2024-03-23T06:51:23;4.28;;;1.20;;
21122;SDS011;10719;48.130;11.630;2024-03-23T06:53:49;4.40;;;1.40;;
21122;SDS011;10719;48.130;11.630;2024-03-23T06:56:15;3.90;;;1.42;;
21122;SDS011;10719;48.130;11.630;2024-03-23T06:58:40;3.78;;;1.27;;
21122;SDS011;10719;48.130;11.630;2024-03-23T07:01:06;3.40;;;1.30;;
21122;SDS011;10719;48.130;11.630;2024-03-23T07:03:32;4.80;;;1.20;;
21122;SDS011;10719;48.130;11.630;2024-03-23T07:05:58;2.60;;;1.20;;
21122;SDS011;10719;48.130;11.630;2024-03-23T07:08:24;1.55;;;1.02;;
21122;SDS011;10719;48.130;11.630;2024-03-23T07:10:49;2.08;;;1.30;;
21122;SDS011;10719;48.130;11.630;2024-03-23T07:13:15;2.40;;;1.05;;
21122;SDS011;10719;48.130;11.630;2024-03-23T07:15:42;3.38;;;1.08;;
21122;SDS011;10719;48.130;11.630;2024-03-23T07:18:07;3.85;;;1.55;;
21122;SDS011;10719;48.130;11.630;2024-03-23T07:20:33;5.78;;;1.60;;
21122;SDS011;10719;48.130;11.630;2024-03-23T07:22:59;3.75;;;1.42;;
21122;SDS011;10719;48.130;11.630;2024-03-23T07:25:24;7.35;;;1.00;;
21122;SDS011;10719;48.130;11.630;2024-03-23T07:27:52;3.28;;;1.20;;
21122;SDS011;10719;48.130;11.630;2024-03-23T07:30:18;6.43;;;1.90;;
21122;SDS011;10719;48.130;11.630;2024-03-23T07:32:44;4.55;;;1.40;;
21122;SDS011;10719;48.130;11.630;2024-03-23T07:35:10;5.18;;;1.98;;
21122;SDS011;10719;48.130;11.630;2024-03-23T07:37:36;7.18;;;1.70;;
21122;SDS011;10719;48.130;11.630;2024-03-23T07:40:01;11.10;;;2.92;;
21122;SDS011;10719;48.130;11.630;2024-03-23T07:42:27;5.80;;;1.75;;
21122;SDS011;10719;48.130;11.630;2024-03-23T07:44:54;6.45;;;2.08;;
21122;SDS011;10719;48.130;11.630;2024-03-23T07:47:21;5.03;;;1.58;;
21122;SDS011;10719;48.130;11.630;2024-03-23T07:49:47;4.13;;;1.70;;
21122;SDS011;10719;48.130;11.630;2024-03-23T07:52:13;2.85;;;1.58;;
21122;SDS011;10719;48.130;11.630;2024-03-23T07:54:39;6.05;;;1.52;;
21122;SDS011;10719;48.130;11.630;2024-03-23T07:57:04;4.85;;;1.65;;
21122;SDS011;10719;48.130;11.630;2024-03-23T07:59:31;5.93;;;1.33;;
21122;SDS011;10719;48.130;11.630;2024-03-23T08:01:58;2.70;;;1.17;;
21122;SDS011;10719;48.130;11.630;2024-03-23T08:04:24;4.63;;;1.20;;
21122;SDS011;10719;48.130;11.630;2024-03-23T08:06:50;4.07;;;1.70;;
21122;SDS011;10719;48.130;11.630;2024-03-23T08:09:15;5.75;;;1.50;;
21122;SDS011;10719;48.130;11.630;2024-03-23T08:11:41;4.75;;;2.03;;
21122;SDS011;10719;48.130;11.630;2024-03-23T08:14:09;5.38;;;1.63;;
21122;SDS011;10719;48.130;11.630;2024-03-23T08:16:35;5.00;;;1.85;;
21122;SDS011;10719;48.130;11.630;2024-03-23T08:19:00;4.38;;;1.83;;
21122;SDS011;10719;48.130;11.630;2024-03-23T08:21:28;3.58;;;1.65;;
21122;SDS011;10719;48.130;11.630;2024-03-23T08:23:54;4.65;;;1.80;;
21122;SDS011;10719;48.130;11.630;2024-03-23T08:26:20;7.28;;;2.10;;
21122;SDS011;10719;48.130;11.630;2024-03-23T08:28:45;6.30;;;1.67;;
21122;SDS011;10719;48.130;11.630;2024-03-23T08:31:11;3.92;;;1.73;;
21122;SDS011;10719;48.130;11.630;2024-03-23T08:33:37;4.93;;;1.90;;
21122;SDS011;10719;48.130;11.630;2024-03-23T08:36:05;3.50;;;1.45;;
21122;SDS011;10719;48.130;11.630;2024-03-23T08:38:32;6.47;;;2.30;;
21122;SDS011;10719;48.130;11.630;2024-03-23T08:43:24;6.47;;;2.03;;
21122;SDS011;10719;48.130;11.630;2024-03-23T08:45:50;8.50;;;2.60;;
21122;SDS011;10719;48.130;11.630;2024-03-23T08:48:16;10.77;;;2.70;;
21122;SDS011;10719;48.130;11.630;2024-03-23T08:50:43;7.10;;;2.58;;
21122;SDS011;10719;48.130;11.630;2024-03-23T08:53:08;4.68;;;1.88;;
21122;SDS011;10719;48.130;11.630;2024-03-23T08:55:34;3.90;;;1.73;;
21122;SDS011;10719;48.130;11.630;2024-03-23T08:58:00;3.17;;;1.50;;
21122;SDS011;10719;48.130;11.630;2024-03-23T09:00:26;6.32;;;1.98;;
21122;SDS011;10719;48.130;11.630;2024-03-23T09:02:51;3.83;;;1.58;;
21122;SDS011;10719;48.130;11.630;2024-03-23T09:05:18;5.53;;;1.98;;
21122;SDS011;10719;48.130;11.630;2024-03-23T09:07:44;7.28;;;1.90;;
21122;SDS011;10719;48.130;11.630;2024-03-23T09:10:09;6.00;;;2.13;;
21122;SDS011;10719;48.130;11.630;2024-03-23T09:12:35;6.13;;;2.17;;
21122;SDS011;10719;48.130;11.630;2024-03-23T09:15:00;3.20;;;1.52;;
21122;SDS011;10719;48.130;11.630;2024-03-23T09:17:26;6.65;;;2.25;;
21122;SDS011;10719;48.130;11.630;2024-03-23T09:19:52;6.00;;;2.10;;
21122;SDS011;10719;48.130;11.630;2024-03-23T09:22:17;8.98;;;2.47;;
21122;SDS011;10719;48.130;11.630;2024-03-23T09:24:43;7.95;;;2.40;;
21122;SDS011;10719;48.130;11.630;2024-03-23T09:27:08;5.32;;;2.13;;
21122;SDS011;10719;48.130;11.630;2024-03-23T09:29:34;7.25;;;2.42;;
21122;SDS011;10719;48.130;11.630;2024-03-23T09:31:59;5.43;;;2.30;;
21122;SDS011;10719;48.130;11.630;2024-03-23T09:34:25;5.72;;;2.40;;
21122;SDS011;10719;48.130;11.630;2024-03-23T09:36:51;6.38;;;2.30;;
21122;SDS011;10719;48.130;11.630;2024-03-23T09:39:17;6.32;;;2.10;;
21122;SDS011;10719;48.130;11.630;2024-03-23T09:41:43;7.90;;;2.10;;
21122;SDS011;10719;48.130;11.630;2024-03-23T09:44:08;4.65;;;2.05;;
21122;SDS011;10719;48.130;11.630;2024-03-23T09:46:34;5.03;;;1.98;;
21122;SDS011;10719;48.130;11.630;2024-03-23T09:49:01;4.40;;;1.95;;
21122;SDS011;10719;48.130;11.630;2024-03-23T09:51:29;3.22;;;1.48;;
21122;SDS011;10719;48.130;11.630;2024-03-23T09:53:55;3.65;;;1.52;;
21122;SDS011;10719;48.130;11.630;2024-03-23T09:56:21;5.68;;;1.50;;
21122;SDS011;10719;48.130;11.630;2024-03-23T09:58:48;3.10;;;1.13;;
21122;SDS011;10719;48.130;11.630;2024-03-23T10:01:14;1.65;;;1.00;;
21122;SDS011;10719;48.130;11.630;2024-03-23T10:03:43;3.90;;;1.33;;
21122;SDS011;10719;48.130;11.630;2024-03-23T10:06:10;2.13;;;1.33;;
21122;SDS011;10719;48.130;11.630;2024-03-23T10:08:35;2.33;;;0.93;;
21122;SDS011;10719;48.130;11.630;2024-03-23T10:11:13;2.55;;;1.10;;
21122;SDS011;10719;48.130;11.630;2024-03-23T10:13:43;1.25;;;0.90;;
21122;SDS011;10719;48.130;11.630;2024-03-23T10:16:11;1.35;;;0.65;;
21122;SDS011;10719;48.130;11.630;2024-03-23T10:18:37;1.70;;;0.80;;
21122;SDS011;10719;48.130;11.630;2024-03-23T10:21:06;0.88;;;0.57;;
21122;SDS011;10719;48.130;11.630;2024-03-23T10:23:34;4.18;;;1.02;;
21122;SDS011;10719;48.130;11.630;2024-03-23T10:26:13;1.23;;;0.70;;
21122;SDS011;10719;48.130;11.630;2024-03-23T10:29:01;1.92;;;1.00;;
21122;SDS011;10719;48.130;11.630;2024-03-23T10:31:28;3.65;;;0.88;;
21122;SDS011;10719;48.130;11.630;2024-03-23T10:33:55;2.38;;;1.00;;
21122;SDS011;10719;48.130;11.630;2024-03-23T10:36:21;6.05;;;1.48;;
21122;SDS011;10719;48.130;11.630;2024-03-23T10:38:49;2.72;;;1.08;;
21122;SDS011;10719;48.130;11.630;2024-03-23T10:41:16;2.83;;;1.20;;
21122;SDS011;10719;48.130;11.630;2024-03-23T10:43:42;1.67;;;0.85;;
21122;SDS011;10719;48.130;11.630;2024-03-23T10:46:11;4.50;;;1.40;;
21122;SDS011;10719;48.130;11.630;2024-03-23T10:48:36;2.13;;;0.90;;
21122;SDS011;10719;48.130;11.630;2024-03-23T10:51:03;9.90;;;2.58;;
21122;SDS011;10719;48.130;11.630;2024-03-23T10:53:30;1.30;;;0.80;;
21122;SDS011;10719;48.130;11.630;2024-03-23T10:55:58;1.83;;;0.50;;
21122;SDS011;10719;48.130;11.630;2024-03-23T10:58:38;1.13;;;0.80;;
21122;SDS011;10719;48.130;11.630;2024-03-23T11:01:05;2.38;;;0.68;;
21122;SDS011;10719;48.130;11.630;2024-03-23T11:03:32;1.30;;;0.50;;
21122;SDS011;10719;48.130;11.630;2024-03-23T11:05:59;2.95;;;0.70;;
21122;SDS011;10719;48.130;11.630;2024-03-23T11:08:32;1.83;;;0.73;;
21122;SDS011;10719;48.130;11.630;2024-03-23T11:11:17;2.75;;;0.95;;
21122;SDS011;10719;48.130;11.630;2024-03-23T11:13:48;0.68;;;0.43;;
21122;SDS011;10719;48.130;11.630;2024-03-23T11:16:24;2.47;;;0.70;;
21122;SDS011;10719;48.130;11.630;2024-03-23T11:22:03;0.80;;;0.60;;
21122;SDS011;10719;48.130;11.630;2024-03-23T11:24:30;3.83;;;0.88;;
21122;SDS011;10719;48.130;11.630;2024-03-23T11:26:56;0.77;;;0.60;;
21122;SDS011;10719;48.130;11.630;2024-03-23T11:29:25;0.77;;;0.60;;
21122;SDS011;10719;48.130;11.630;2024-03-23T11:31:51;3.53;;;1.02;;
21122;SDS011;10719;48.130;11.630;2024-03-23T11:34:18;3.13;;;0.98;;
21122;SDS011;10719;48.130;11.630;2024-03-23T11:36:45;2.95;;;0.70;;
21122;SDS011;10719;48.130;11.630;2024-03-23T11:39:20;1.92;;;0.90;;
21122;SDS011;10719;48.130;11.630;2024-03-23T11:41:47;6.28;;;1.27;;
21122;SDS011;10719;48.130;11.630;2024-03-23T11:44:20;2.78;;;0.80;;
21122;SDS011;10719;48.130;11.630;2024-03-23T11:46:47;2.47;;;1.05;;
21122;SDS011;10719;48.130;11.630;2024-03-23T11:49:23;1.85;;;0.77;;
21122;SDS011;10719;48.130;11.630;2024-03-23T11:51:49;1.80;;;1.02;;
21122;SDS011;10719;48.130;11.630;2024-03-23T11:54:16;3.22;;;1.23;;
21122;SDS011;10719;48.130;11.630;2024-03-23T11:57:04;1.15;;;0.80;;
21122;SDS011;10719;48.130;11.630;2024-03-23T12:01:59;5.30;;;1.10;;
21122;SDS011;10719;48.130;11.630;2024-03-23T12:04:28;2.42;;;0.98;;
21122;SDS011;10719;48.130;11.630;2024-03-23T12:09:39;2.40;;;1.00;;
21122;SDS011;10719;48.130;11.630;2024-03-23T12:12:09;4.22;;;1.35;;
21122;SDS011;10719;48.130;11.630;2024-03-23T12:14:44;1.48;;;0.95;;
21122;SDS011;10719;48.130;11.630;2024-03-23T12:17:14;2.60;;;1.15;;
21122;SDS011;10719;48.130;11.630;2024-03-23T12:19:40;5.78;;;1.80;;
21122;SDS011;10719;48.130;11.630;2024-03-23T12:22:07;2.90;;;1.30;;
21122;SDS011;10719;48.130;11.630;2024-03-23T12:24:33;5.18;;;1.50;;
21122;SDS011;10719;48.130;11.630;2024-03-23T12:27:00;3.03;;;1.38;;
21122;SDS011;10719;48.130;11.630;2024-03-23T12:29:30;3.85;;;1.40;;
21122;SDS011;10719;48.130;11.630;2024-03-23T12:31:59;4.57;;;1.67;;
21122;SDS011;10719;48.130;11.630;2024-03-23T12:34:26;3.22;;;1.38;;
21122;SDS011;10719;48.130;11.630;2024-03-23T12:36:52;6.10;;;1.60;;
21122;SDS011;10719;48.130;11.630;2024-03-23T12:39:18;5.95;;;1.60;;
21122;SDS011;10719;48.130;11.630;2024-03-23T12:41:44;3.05;;;1.10;;
21122;SDS011;10719;48.130;11.630;2024-03-23T12:44:09;4.53;;;1.58;;
21122;SDS011;10719;48.130;11.630;2024-03-23T12:46:37;4.25;;;1.50;;
21122;SDS011;10719;48.130;11.630;2024-03-23T12:49:03;2.58;;;1.50;;
21122;SDS011;10719;48.130;11.630;2024-03-23T12:51:29;3.78;;;1.30;;
21122;SDS011;10719;48.130;11.630;2024-03-23T12:53:54;4.03;;;1.58;;
21122;SDS011;10719;48.130;11.630;2024-03-23T12:56:21;4.18;;;1.65;;
21122;SDS011;10719;48.130;11.630;2024-03-23T12:58:47;4.60;;;1.60;;
21122;SDS011;10719;48.130;11.630;2024-03-23T13:01:19;5.30;;;1.25;;
21122;SDS011;10719;48.130;11.630;2024-03-23T13:03:48;4.32;;;1.88;;
21122;SDS011;10719;48.130;11.630;2024-03-23T13:06:14;4.63;;;1.75;;
21122;SDS011;10719;48.130;11.630;2024-03-23T13:08:40;4.40;;;1.30;;
21122;SDS011;10719;48.130;11.630;2024-03-23T13:11:06;4.35;;;1.38;;
21122;SDS011;10719;48.130;11.630;2024-03-23T13:13:34;6.22;;;1.60;;
21122;SDS011;10719;48.130;11.630;2024-03-23T13:15:59;8.30;;;1.90;;
21122;SDS011;10719;48.130;11.630;2024-03-23T13:18:25;5.18;;;1.40;;
21122;SDS011;10719;48.130;11.630;2024-03-23T13:20:51;3.17;;;1.55;;
21122;SDS011;10719;48.130;11.630;2024-03-23T13:23:17;6.82;;;1.52;;
21122;SDS011;10719;48.130;11.630;2024-03-23T13:25:49;4.78;;;1.98;;
21122;SDS011;10719;48.130;11.630;2024-03-23T13:28:15;5.47;;;1.77;;
21122;SDS011;10719;48.130;11.630;2024-03-23T13:30:49;5.00;;;1.60;;
21122;SDS011;10719;48.130;11.630;2024-03-23T13:33:18;4.88;;;1.73;;
21122;SDS011;10719;48.130;11.630;2024-03-23T13:35:51;6.10;;;2.00;;
21122;SDS011;10719;48.130;11.630;2024-03-23T13:38:17;4.20;;;1.40;;
21122;SDS011;10719;48.130;11.630;2024-03-23T13:40:52;5.47;;;1.65;;
21122;SDS011;10719;48.130;11.630;2024-03-23T13:43:22;3.63;;;1.50;;
21122;SDS011;10719;48.130;11.630;2024-03-23T13:45:49;6.10;;;1.58;;
21122;SDS011;10719;48.130;11.630;2024-03-23T13:48:18;4.88;;;1.33;;
21122;SDS011;10719;48.130;11.630;2024-03-23T13:50:45;4.85;;;1.80;;
21122;SDS011;10719;48.130;11.630;2024-03-23T13:53:12;3.25;;;1.35;;
21122;SDS011;10719;48.130;11.630;2024-03-23T13:55:38;7.60;;;1.83;;
21122;SDS011;10719;48.130;11.630;2024-03-23T13:58:12;5.47;;;1.83;;
21122;SDS011;10719;48.130;11.630;2024-03-23T14:00:38;5.10;;;1.70;;
21122;SDS011;10719;48.130;11.630;2024-03-23T14:03:04;6.75;;;2.08;;
21122;SDS011;10719;48.130;11.630;2024-03-23T14:05:30;5.80;;;2.00;;
21122;SDS011;10719;48.130;11.630;2024-03-23T14:07:56;7.97;;;2.30;;
21122;SDS011;10719;48.130;11.630;2024-03-23T14:10:21;7.32;;;2.05;;
21122;SDS011;10719;48.130;11.630;2024-03-23T14:12:47;7.38;;;2.25;;
21122;SDS011;10719;48.130;11.630;2024-03-23T14:15:12;8.70;;;2.15;;
21122;SDS011;10719;48.130;11.630;2024-03-23T14:17:38;9.27;;;2.28;;
21122;SDS011;10719;48.130;11.630;2024-03-23T14:20:04;8.88;;;2.25;;
21122;SDS011;10719;48.130;11.630;2024-03-23T14:22:31;11.95;;;2.60;;
21122;SDS011;10719;48.130;11.630;2024-03-23T14:24:57;12.57;;;3.10;;
21122;SDS011;10719;48.130;11.630;2024-03-23T14:27:23;8.48;;;2.20;;
21122;SDS011;10719;48.130;11.630;2024-03-23T14:29:49;7.30;;;2.40;;
21122;SDS011;10719;48.130;11.630;2024-03-23T14:32:15;7.22;;;2.40;;
21122;SDS011;10719;48.130;11.630;2024-03-23T14:34:41;7.20;;;2.13;;
21122;SDS011;10719;48.130;11.630;2024-03-23T14:37:07;6.85;;;2.00;;
21122;SDS011;10719;48.130;11.630;2024-03-23T14:39:33;7.97;;;2.10;;
21122;SDS011;10719;48.130;11.630;2024-03-23T14:42:04;8.52;;;2.30;;
21122;SDS011;10719;48.130;11.630;2024-03-23T14:44:31;7.68;;;2.28;;
21122;SDS011;10719;48.130;11.630;2024-03-23T14:46:57;4.38;;;1.90;;
21122;SDS011;10719;48.130;11.630;2024-03-23T14:49:22;8.00;;;2.00;;
21122;SDS011;10719;48.130;11.630;2024-03-23T14:51:48;6.88;;;1.55;;
21122;SDS011;10719;48.130;11.630;2024-03-23T14:54:14;5.78;;;1.55;;
21122;SDS011;10719;48.130;11.630;2024-03-23T14:56:40;7.53;;;1.58;;
21122;SDS011;10719;48.130;11.630;2024-03-23T14:59:05;3.90;;;1.45;;
21122;SDS011;10719;48.130;11.630;2024-03-23T15:01:32;4.43;;;1.35;;
21122;SDS011;10719;48.130;11.630;2024-03-23T15:03:58;6.10;;;1.45;;
21122;SDS011;10719;48.130;11.630;2024-03-23T15:06:23;3.55;;;1.27;;
21122;SDS011;10719;48.130;11.630;2024-03-23T15:08:49;6.47;;;1.33;;
21122;SDS011;10719;48.130;11.630;2024-03-23T15:11:14;4.40;;;1.48;;
21122;SDS011;10719;48.130;11.630;2024-03-23T15:13:43;4.78;;;1.20;;
21122;SDS011;10719;48.130;11.630;2024-03-23T15:16:08;7.13;;;1.63;;
21122;SDS011;10719;48.130;11.630;2024-03-23T15:18:34;7.30;;;1.65;;
21122;SDS011;10719;48.130;11.630;2024-03-23T15:21:01;3.08;;;1.45;;
21122;SDS011;10719;48.130;11.630;2024-03-23T15:23:28;4.40;;;1.60;;
21122;SDS011;10719;48.130;11.630;2024-03-23T15:25:55;5.40;;;1.70;;
21122;SDS011;10719;48.130;11.630;2024-03-23T15:28:21;7.38;;;1.90;;
21122;SDS011;10719;48.130;11.630;2024-03-23T15:31:06;5.28;;;1.80;;
21122;SDS011;10719;48.130;11.630;2024-03-23T15:33:34;7.65;;;1.60;;